sensor_id;sensor_type;location;lat;lon;timestamp;pressure;altitude;pressure_sealevel;temperature;humidity
11692;BME280;33659;42.672;23.354;2023-05-14T00:02:14;94805.63;;;15.06;54.38
11692;BME280;33659;42.672;23.354;2023-05-14T00:04:40;94797.41;;;15.08;54.09
11692;BME280;33659;42.672;23.354;2023-05-14T00:07:07;94793.59;;;15.05;54.24
11692;BME280;33659;42.672;23.354;2023-05-14T00:09:34;94791.22;;;15.00;54.35
11692;BME280;33659;42.672;23.354;2023-05-14T00:12:02;94792.69;;;14.98;54.73
11692;BME280;33659;42.672;23.354;2023-05-14T00:14:29;94794.34;;;15.06;54.37
11692;BME280;33659;42.672;23.354;2023-05-14T00:16:55;94784.94;;;15.05;54.38
11692;BME280;33659;42.672;23.354;2023-05-14T00:19:23;94786.44;;;15.06;54.39
11692;BME280;33659;42.672;23.354;2023-05-14T00:21:50;94786.03;;;15.04;54.47
11692;BME280;33659;42.672;23.354;2023-05-14T00:24:17;94776.63;;;15.03;54.41
11692;BME280;33659;42.672;23.354;2023-05-14T00:26:43;94781.53;;;15.04;54.23
11692;BME280;33659;42.672;23.354;2023-05-14T00:29:11;94773.31;;;15.06;54.00
11692;BME280;33659;42.672;23.354;2023-05-14T00:31:38;94771.78;;;15.05;53.92
11692;BME280;33659;42.672;23.354;2023-05-14T00:34:05;94766.31;;;14.94;53.88
11692;BME280;33659;42.672;23.354;2023-05-14T00:36:31;94759.22;;;14.79;54.50
11692;BME280;33659;42.672;23.354;2023-05-14T00:38:58;94766.25;;;14.75;54.80
11692;BME280;33659;42.672;23.354;2023-05-14T00:41:25;94763.56;;;14.71;55.08
11692;BME280;33659;42.672;23.354;2023-05-14T00:43:51;94768.84;;;14.71;54.85
11692;BME280;33659;42.672;23.354;2023-05-14T00:46:20;94757.00;;;14.81;54.86
11692;BME280;33659;42.672;23.354;2023-05-14T00:48:46;94758.56;;;14.82;54.63
11692;BME280;33659;42.672;23.354;2023-05-14T00:51:13;94761.84;;;14.79;54.74
11692;BME280;33659;42.672;23.354;2023-05-14T00:53:41;94765.84;;;14.73;55.00
11692;BME280;33659;42.672;23.354;2023-05-14T00:56:08;94757.91;;;14.69;54.94
11692;BME280;33659;42.672;23.354;2023-05-14T00:58:35;94758.66;;;14.70;55.06
11692;BME280;33659;42.672;23.354;2023-05-14T01:01:01;94753.56;;;14.77;55.33
11692;BME280;33659;42.672;23.354;2023-05-14T01:03:30;94748.03;;;14.82;54.68
11692;BME280;33659;42.672;23.354;2023-05-14T01:06:02;94747.59;;;14.80;54.70
11692;BME280;33659;42.672;23.354;2023-05-14T01:08:39;94755.06;;;14.78;54.70
11692;BME280;33659;42.672;23.354;2023-05-14T01:11:11;94753.28;;;14.82;54.46
11692;BME280;33659;42.672;23.354;2023-05-14T01:13:45;94755.56;;;14.83;54.29
11692;BME280;33659;42.672;23.354;2023-05-14T01:16:14;94746.22;;;14.86;54.01
11692;BME280;33659;42.672;23.354;2023-05-14T01:18:45;94747.75;;;14.87;53.72
11692;BME280;33659;42.672;23.354;2023-05-14T01:21:24;94722.53;;;14.67;53.94
11692;BME280;33659;42.672;23.354;2023-05-14T01:23:51;94747.19;;;14.78;54.24
11692;BME280;33659;42.672;23.354;2023-05-14T01:26:17;94756.69;;;14.82;54.13
11692;BME280;33659;42.672;23.354;2023-05-14T01:28:46;94761.59;;;14.84;53.87
11692;BME280;33659;42.672;23.354;2023-05-14T01:31:17;94775.91;;;14.86;53.60
11692;BME280;33659;42.672;23.354;2023-05-14T01:33:49;94772.47;;;14.82;53.81
11692;BME280;33659;42.672;23.354;2023-05-14T01:36:17;94769.97;;;14.89;53.69
11692;BME280;33659;42.672;23.354;2023-05-14T01:38:46;94766.31;;;14.94;53.73
11692;BME280;33659;42.672;23.354;2023-05-14T01:41:14;94769.97;;;14.89;53.65
11692;BME280;33659;42.672;23.354;2023-05-14T01:43:43;94771.00;;;14.85;53.81
11692;BME280;33659;42.672;23.354;2023-05-14T01:46:10;94779.50;;;14.78;54.10
11692;BME280;33659;42.672;23.354;2023-05-14T01:48:36;94776.31;;;14.69;54.24
11692;BME280;33659;42.672;23.354;2023-05-14T01:51:03;94772.81;;;14.65;54.59
11692;BME280;33659;42.672;23.354;2023-05-14T01:53:30;94764.19;;;14.65;54.87
11692;BME280;33659;42.672;23.354;2023-05-14T01:56:00;94767.31;;;14.70;54.19
11692;BME280;33659;42.672;23.354;2023-05-14T01:58:27;94774.75;;;14.68;54.52
11692;BME280;33659;42.672;23.354;2023-05-14T02:00:54;94778.69;;;14.58;54.79
11692;BME280;33659;42.672;23.354;2023-05-14T02:03:20;94779.97;;;14.65;55.21
11692;BME280;33659;42.672;23.354;2023-05-14T02:05:47;94780.63;;;14.61;55.53
11692;BME280;33659;42.672;23.354;2023-05-14T02:08:13;94777.16;;;14.57;56.21
11692;BME280;33659;42.672;23.354;2023-05-14T02:10:40;94779.28;;;14.52;56.97
11692;BME280;33659;42.672;23.354;2023-05-14T02:13:08;94787.00;;;14.45;56.44
11692;BME280;33659;42.672;23.354;2023-05-14T02:15:35;94779.19;;;14.32;57.38
11692;BME280;33659;42.672;23.354;2023-05-14T02:18:01;94772.94;;;14.21;57.55
11692;BME280;33659;42.672;23.354;2023-05-14T02:20:28;94775.81;;;14.16;58.39
11692;BME280;33659;42.672;23.354;2023-05-14T02:22:55;94781.50;;;14.18;58.45
11692;BME280;33659;42.672;23.354;2023-05-14T02:25:21;94788.88;;;14.13;58.73
11692;BME280;33659;42.672;23.354;2023-05-14T02:27:48;94792.84;;;14.06;59.57
11692;BME280;33659;42.672;23.354;2023-05-14T02:30:16;94799.53;;;14.04;59.23
11692;BME280;33659;42.672;23.354;2023-05-14T02:32:44;94793.34;;;13.96;59.52
11692;BME280;33659;42.672;23.354;2023-05-14T02:35:11;94790.19;;;13.91;59.56
11692;BME280;33659;42.672;23.354;2023-05-14T02:37:37;94789.00;;;13.88;60.09
11692;BME280;33659;42.672;23.354;2023-05-14T02:40:05;94794.09;;;13.97;59.59
11692;BME280;33659;42.672;23.354;2023-05-14T02:42:33;94804.41;;;13.90;59.39
11692;BME280;33659;42.672;23.354;2023-05-14T02:45:00;94799.69;;;13.79;59.43
11692;BME280;33659;42.672;23.354;2023-05-14T02:47:28;94810.00;;;13.72;59.63
11692;BME280;33659;42.672;23.354;2023-05-14T02:49:54;94814.09;;;13.58;59.26
11692;BME280;33659;42.672;23.354;2023-05-14T02:52:21;94811.44;;;13.42;59.59
11692;BME280;33659;42.672;23.354;2023-05-14T02:54:48;94809.19;;;13.28;59.61
11692;BME280;33659;42.672;23.354;2023-05-14T02:57:14;94801.88;;;13.21;59.51
11692;BME280;33659;42.672;23.354;2023-05-14T02:59:41;94806.03;;;13.10;60.08
11692;BME280;33659;42.672;23.354;2023-05-14T03:02:08;94809.63;;;13.06;60.11
11692;BME280;33659;42.672;23.354;2023-05-14T03:04:36;94806.94;;;13.02;60.18
11692;BME280;33659;42.672;23.354;2023-05-14T03:07:02;94809.53;;;13.02;60.02
11692;BME280;33659;42.672;23.354;2023-05-14T03:09:29;94806.47;;;13.00;60.42
11692;BME280;33659;42.672;23.354;2023-05-14T03:11:56;94803.63;;;13.05;60.51
11692;BME280;33659;42.672;23.354;2023-05-14T03:14:22;94793.25;;;13.09;60.37
11692;BME280;33659;42.672;23.354;2023-05-14T03:16:49;94786.03;;;13.06;60.85
11692;BME280;33659;42.672;23.354;2023-05-14T03:19:16;94782.75;;;13.09;60.82
11692;BME280;33659;42.672;23.354;2023-05-14T03:21:44;94778.72;;;13.11;60.43
11692;BME280;33659;42.672;23.354;2023-05-14T03:24:10;94789.31;;;13.15;60.52
11692;BME280;33659;42.672;23.354;2023-05-14T03:26:37;94790.81;;;13.16;60.32
11692;BME280;33659;42.672;23.354;2023-05-14T03:29:04;94795.44;;;13.07;60.67
11692;BME280;33659;42.672;23.354;2023-05-14T03:31:30;94794.03;;;12.97;60.58
11692;BME280;33659;42.672;23.354;2023-05-14T03:33:57;94791.09;;;12.86;61.74
11692;BME280;33659;42.672;23.354;2023-05-14T03:36:24;94797.66;;;12.80;62.63
11692;BME280;33659;42.672;23.354;2023-05-14T03:38:52;94806.63;;;12.67;63.50
11692;BME280;33659;42.672;23.354;2023-05-14T03:41:19;94808.16;;;12.56;63.67
11692;BME280;33659;42.672;23.354;2023-05-14T03:43:47;94812.53;;;12.52;64.52
11692;BME280;33659;42.672;23.354;2023-05-14T03:46:13;94810.03;;;12.43;64.63
11692;BME280;33659;42.672;23.354;2023-05-14T03:48:40;94804.69;;;12.39;64.08
11692;BME280;33659;42.672;23.354;2023-05-14T03:51:07;94802.41;;;12.38;65.17
11692;BME280;33659;42.672;23.354;2023-05-14T03:53:33;94804.47;;;12.32;64.92
11692;BME280;33659;42.672;23.354;2023-05-14T03:56:01;94804.47;;;12.32;65.00
11692;BME280;33659;42.672;23.354;2023-05-14T03:58:28;94789.50;;;12.20;64.96
11692;BME280;33659;42.672;23.354;2023-05-14T04:00:55;94810.78;;;12.31;65.17
11692;BME280;33659;42.672;23.354;2023-05-14T04:03:22;94796.81;;;12.27;64.95
11692;BME280;33659;42.672;23.354;2023-05-14T04:05:49;94802.47;;;12.29;64.98
11692;BME280;33659;42.672;23.354;2023-05-14T04:08:16;94804.78;;;12.31;64.21
11692;BME280;33659;42.672;23.354;2023-05-14T04:10:43;94806.75;;;12.34;64.17
11692;BME280;33659;42.672;23.354;2023-05-14T04:13:11;94819.50;;;12.35;63.93
11692;BME280;33659;42.672;23.354;2023-05-14T04:15:37;94818.88;;;12.38;64.01
11692;BME280;33659;42.672;23.354;2023-05-14T04:18:04;94825.22;;;12.37;63.89
11692;BME280;33659;42.672;23.354;2023-05-14T04:20:31;94816.25;;;12.38;64.65
11692;BME280;33659;42.672;23.354;2023-05-14T04:22:58;94817.78;;;12.39;64.50
11692;BME280;33659;42.672;23.354;2023-05-14T04:25:24;94823.44;;;12.41;63.79
11692;BME280;33659;42.672;23.354;2023-05-14T04:27:51;94820.81;;;12.41;64.14
11692;BME280;33659;42.672;23.354;2023-05-14T04:30:19;94828.69;;;12.41;63.81
11692;BME280;33659;42.672;23.354;2023-05-14T04:32:46;94829.34;;;12.38;63.77
11692;BME280;33659;42.672;23.354;2023-05-14T04:35:12;94838.94;;;12.34;63.94
11692;BME280;33659;42.672;23.354;2023-05-14T04:37:39;94833.59;;;12.31;63.48
11692;BME280;33659;42.672;23.354;2023-05-14T04:40:07;94843.41;;;12.34;64.10
11692;BME280;33659;42.672;23.354;2023-05-14T04:42:35;94847.69;;;12.38;63.76
11692;BME280;33659;42.672;23.354;2023-05-14T04:45:02;94848.09;;;12.40;64.25
11692;BME280;33659;42.672;23.354;2023-05-14T04:47:30;94833.59;;;12.31;64.42
11692;BME280;33659;42.672;23.354;2023-05-14T04:49:57;94842.66;;;12.33;64.08
11692;BME280;33659;42.672;23.354;2023-05-14T04:52:24;94856.63;;;12.25;65.22
11692;BME280;33659;42.672;23.354;2023-05-14T04:54:50;94861.50;;;12.14;65.65
11692;BME280;33659;42.672;23.354;2023-05-14T04:57:17;94860.50;;;12.07;66.14
11692;BME280;33659;42.672;23.354;2023-05-14T04:59:44;94860.69;;;12.02;66.17
11692;BME280;33659;42.672;23.354;2023-05-14T05:02:10;94864.03;;;11.90;66.47
11692;BME280;33659;42.672;23.354;2023-05-14T05:04:38;94875.06;;;11.96;67.22
11692;BME280;33659;42.672;23.354;2023-05-14T05:07:05;94877.13;;;11.90;67.55
11692;BME280;33659;42.672;23.354;2023-05-14T05:09:32;94880.25;;;11.83;68.23
11692;BME280;33659;42.672;23.354;2023-05-14T05:11:58;94883.97;;;11.82;68.92
11692;BME280;33659;42.672;23.354;2023-05-14T05:14:25;94891.56;;;11.75;69.22
11692;BME280;33659;42.672;23.354;2023-05-14T05:16:52;94907.56;;;11.74;70.28
11692;BME280;33659;42.672;23.354;2023-05-14T05:19:19;94902.66;;;11.72;71.49
11692;BME280;33659;42.672;23.354;2023-05-14T05:21:47;94902.84;;;11.67;72.39
11692;BME280;33659;42.672;23.354;2023-05-14T05:24:14;94904.81;;;11.70;72.91
11692;BME280;33659;42.672;23.354;2023-05-14T05:26:40;94907.31;;;11.66;73.49
11692;BME280;33659;42.672;23.354;2023-05-14T05:29:07;94910.00;;;11.58;74.43
11692;BME280;33659;42.672;23.354;2023-05-14T05:31:34;94902.03;;;11.54;74.59
11692;BME280;33659;42.672;23.354;2023-05-14T05:34:01;94908.72;;;11.43;75.05
11692;BME280;33659;42.672;23.354;2023-05-14T05:36:28;94916.06;;;11.50;76.17
11692;BME280;33659;42.672;23.354;2023-05-14T05:38:56;94920.34;;;11.54;76.87
11692;BME280;33659;42.672;23.354;2023-05-14T05:41:23;94910.06;;;11.49;77.06
11692;BME280;33659;42.672;23.354;2023-05-14T05:43:50;94909.03;;;11.42;77.74
11692;BME280;33659;42.672;23.354;2023-05-14T05:46:18;94922.31;;;11.57;77.70
11692;BME280;33659;42.672;23.354;2023-05-14T05:48:44;94924.88;;;11.66;77.87
11692;BME280;33659;42.672;23.354;2023-05-14T05:51:11;94887.47;;;11.45;77.37
11692;BME280;33659;42.672;23.354;2023-05-14T05:53:37;94926.16;;;11.60;77.42
11692;BME280;33659;42.672;23.354;2023-05-14T05:56:06;94922.19;;;11.54;78.24
11692;BME280;33659;42.672;23.354;2023-05-14T05:58:32;94921.44;;;11.53;78.91
11692;BME280;33659;42.672;23.354;2023-05-14T06:00:59;94916.81;;;11.50;78.84
11692;BME280;33659;42.672;23.354;2023-05-14T06:03:26;94917.31;;;11.44;79.81
11692;BME280;33659;42.672;23.354;2023-05-14T06:05:53;94914.28;;;11.42;78.77
11692;BME280;33659;42.672;23.354;2023-05-14T06:08:19;94905.97;;;11.39;79.30
11692;BME280;33659;42.672;23.354;2023-05-14T06:10:46;94912.66;;;11.28;79.54
11692;BME280;33659;42.672;23.354;2023-05-14T06:13:14;94915.31;;;11.20;80.31
11692;BME280;33659;42.672;23.354;2023-05-14T06:15:41;94922.56;;;11.14;80.82
11692;BME280;33659;42.672;23.354;2023-05-14T06:18:08;94920.16;;;11.09;81.51
11692;BME280;33659;42.672;23.354;2023-05-14T06:20:34;94918.06;;;10.94;81.44
11692;BME280;33659;42.672;23.354;2023-05-14T06:23:01;94912.91;;;10.85;82.23
11692;BME280;33659;42.672;23.354;2023-05-14T06:25:27;94906.16;;;10.84;82.67
11692;BME280;33659;42.672;23.354;2023-05-14T06:27:54;94907.34;;;10.87;83.03
11692;BME280;33659;42.672;23.354;2023-05-14T06:30:22;94913.66;;;10.85;83.24
11692;BME280;33659;42.672;23.354;2023-05-14T06:32:49;94915.19;;;10.87;84.01
11692;BME280;33659;42.672;23.354;2023-05-14T06:35:16;94914.31;;;10.82;84.92
11692;BME280;33659;42.672;23.354;2023-05-14T06:37:42;94939.78;;;10.85;85.55
11692;BME280;33659;42.672;23.354;2023-05-14T06:40:10;94932.88;;;10.90;85.43
11692;BME280;33659;42.672;23.354;2023-05-14T06:42:37;94924.81;;;10.95;85.91
11692;BME280;33659;42.672;23.354;2023-05-14T06:45:04;94909.88;;;11.04;86.49
11692;BME280;33659;42.672;23.354;2023-05-14T06:47:32;94912.66;;;11.28;85.69
11692;BME280;33659;42.672;23.354;2023-05-14T06:49:59;94914.91;;;11.38;84.74
11692;BME280;33659;42.672;23.354;2023-05-14T06:52:27;94915.28;;;11.49;85.07
11692;BME280;33659;42.672;23.354;2023-05-14T06:54:55;94909.22;;;11.57;84.04
11692;BME280;33659;42.672;23.354;2023-05-14T06:57:21;94893.25;;;11.71;84.55
11692;BME280;33659;42.672;23.354;2023-05-14T06:59:49;94893.34;;;11.83;83.42
11692;BME280;33659;42.672;23.354;2023-05-14T07:02:15;94897.88;;;11.95;82.90
11692;BME280;33659;42.672;23.354;2023-05-14T07:04:44;94893.41;;;11.96;82.49
11692;BME280;33659;42.672;23.354;2023-05-14T07:07:11;94897.44;;;11.93;82.20
11692;BME280;33659;42.672;23.354;2023-05-14T07:09:40;94907.81;;;12.02;82.72
11692;BME280;33659;42.672;23.354;2023-05-14T07:12:07;94906.97;;;12.10;83.18
11692;BME280;33659;42.672;23.354;2023-05-14T07:14:34;94896.06;;;12.08;83.67
11692;BME280;33659;42.672;23.354;2023-05-14T07:17:01;94906.38;;;12.25;83.83
11692;BME280;33659;42.672;23.354;2023-05-14T07:19:27;94925.03;;;12.36;83.70
11692;BME280;33659;42.672;23.354;2023-05-14T07:21:56;94934.22;;;12.42;82.95
11692;BME280;33659;42.672;23.354;2023-05-14T07:24:23;94950.66;;;12.63;81.76
11692;BME280;33659;42.672;23.354;2023-05-14T07:26:49;94938.88;;;12.69;80.75
11692;BME280;33659;42.672;23.354;2023-05-14T07:29:16;94929.47;;;12.81;80.70
11692;BME280;33659;42.672;23.354;2023-05-14T07:31:43;94924.13;;;12.89;80.36
11692;BME280;33659;42.672;23.354;2023-05-14T07:34:09;94927.41;;;12.86;79.83
11692;BME280;33659;42.672;23.354;2023-05-14T07:36:37;94922.63;;;12.88;79.61
11692;BME280;33659;42.672;23.354;2023-05-14T07:39:05;94924.22;;;12.93;78.99
11692;BME280;33659;42.672;23.354;2023-05-14T07:41:32;94925.31;;;12.92;78.50
11692;BME280;33659;42.672;23.354;2023-05-14T07:43:58;94934.50;;;12.86;78.48
11692;BME280;33659;42.672;23.354;2023-05-14T07:46:25;94926.75;;;12.89;78.61
11692;BME280;33659;42.672;23.354;2023-05-14T07:48:52;94928.94;;;12.87;78.93
11692;BME280;33659;42.672;23.354;2023-05-14T07:51:18;94932.00;;;12.89;78.81
11692;BME280;33659;42.672;23.354;2023-05-14T07:53:45;94933.53;;;12.90;78.57
11692;BME280;33659;42.672;23.354;2023-05-14T07:56:13;94940.09;;;12.96;78.28
11692;BME280;33659;42.672;23.354;2023-05-14T07:58:40;94955.16;;;12.99;77.89
11692;BME280;33659;42.672;23.354;2023-05-14T08:01:06;94955.34;;;12.94;77.60
11692;BME280;33659;42.672;23.354;2023-05-14T08:03:35;94942.50;;;12.89;77.93
11692;BME280;33659;42.672;23.354;2023-05-14T08:06:02;94940.09;;;12.96;78.36
11692;BME280;33659;42.672;23.354;2023-05-14T08:08:29;94943.13;;;12.98;78.17
11692;BME280;33659;42.672;23.354;2023-05-14T08:10:55;94940.28;;;12.91;78.35
11692;BME280;33659;42.672;23.354;2023-05-14T08:13:24;94939.88;;;12.89;78.99
11692;BME280;33659;42.672;23.354;2023-05-14T08:15:50;94932.44;;;12.91;79.25
11692;BME280;33659;42.672;23.354;2023-05-14T08:18:17;94931.75;;;12.94;78.82
11692;BME280;33659;42.672;23.354;2023-05-14T08:20:44;94931.13;;;12.97;78.39
11692;BME280;33659;42.672;23.354;2023-05-14T08:23:11;94922.16;;;13.11;78.01
11692;BME280;33659;42.672;23.354;2023-05-14T08:25:38;94919.31;;;13.16;77.87
11692;BME280;33659;42.672;23.354;2023-05-14T08:28:04;94910.25;;;13.13;78.61
11692;BME280;33659;42.672;23.354;2023-05-14T08:30:32;94916.91;;;13.11;78.71
11692;BME280;33659;42.672;23.354;2023-05-14T08:32:59;94919.53;;;13.11;78.67
11692;BME280;33659;42.672;23.354;2023-05-14T08:35:26;94914.84;;;13.16;78.38
11692;BME280;33659;42.672;23.354;2023-05-14T08:37:52;94914.16;;;13.19;78.15
11692;BME280;33659;42.672;23.354;2023-05-14T08:40:21;94911.34;;;13.12;77.97
11692;BME280;33659;42.672;23.354;2023-05-14T08:42:47;94896.81;;;13.15;77.96
11692;BME280;33659;42.672;23.354;2023-05-14T08:45:18;94892.56;;;13.22;78.29
11692;BME280;33659;42.672;23.354;2023-05-14T08:47:49;94891.59;;;13.27;78.60
11692;BME280;33659;42.672;23.354;2023-05-14T08:50:16;94873.88;;;13.24;78.94
11692;BME280;33659;42.672;23.354;2023-05-14T08:52:44;94882.41;;;13.09;78.89
11692;BME280;33659;42.672;23.354;2023-05-14T08:55:11;94901.53;;;13.21;78.17
11692;BME280;33659;42.672;23.354;2023-05-14T08:57:39;94885.56;;;13.14;77.65
11692;BME280;33659;42.672;23.354;2023-05-14T09:00:06;94876.28;;;13.05;77.94
11692;BME280;33659;42.672;23.354;2023-05-14T09:02:36;94881.31;;;12.97;78.44
11692;BME280;33659;42.672;23.354;2023-05-14T09:05:06;94891.38;;;12.83;79.08
11692;BME280;33659;42.672;23.354;2023-05-14T09:07:34;94898.34;;;12.79;78.08
11692;BME280;33659;42.672;23.354;2023-05-14T09:10:01;94900.09;;;12.75;78.43
11692;BME280;33659;42.672;23.354;2023-05-14T09:12:28;94889.38;;;12.68;79.17
11692;BME280;33659;42.672;23.354;2023-05-14T09:14:55;94888.84;;;12.87;79.07
11692;BME280;33659;42.672;23.354;2023-05-14T09:17:24;94888.97;;;12.90;78.50
11692;BME280;33659;42.672;23.354;2023-05-14T09:19:51;94898.47;;;12.95;78.52
11692;BME280;33659;42.672;23.354;2023-05-14T09:22:19;94893.75;;;13.00;78.67
11692;BME280;33659;42.672;23.354;2023-05-14T09:25:01;94896.16;;;13.06;79.29
11692;BME280;33659;42.672;23.354;2023-05-14T09:27:29;94889.94;;;13.10;78.81
11692;BME280;33659;42.672;23.354;2023-05-14T09:30:07;94882.81;;;13.11;78.60
11692;BME280;33659;42.672;23.354;2023-05-14T09:32:35;94869.72;;;13.11;78.10
11692;BME280;33659;42.672;23.354;2023-05-14T09:35:12;94874.84;;;13.07;77.49
11692;BME280;33659;42.672;23.354;2023-05-14T09:37:43;94874.84;;;13.07;77.72
11692;BME280;33659;42.672;23.354;2023-05-14T09:40:11;94881.31;;;13.10;78.35
11692;BME280;33659;42.672;23.354;2023-05-14T09:42:38;94875.72;;;13.11;78.29
11692;BME280;33659;42.672;23.354;2023-05-14T09:45:06;94864.69;;;13.06;78.36
11692;BME280;33659;42.672;23.354;2023-05-14T09:47:33;94857.72;;;13.10;78.61
11692;BME280;33659;42.672;23.354;2023-05-14T09:50:00;94857.47;;;13.15;78.52
11692;BME280;33659;42.672;23.354;2023-05-14T09:52:28;94864.34;;;13.19;78.45
11692;BME280;33659;42.672;23.354;2023-05-14T09:54:56;94860.09;;;13.15;77.90
11692;BME280;33659;42.672;23.354;2023-05-14T09:57:23;94860.53;;;13.17;77.86
11692;BME280;33659;42.672;23.354;2023-05-14T09:59:51;94851.78;;;13.25;77.94
11692;BME280;33659;42.672;23.354;2023-05-14T10:02:22;94861.09;;;13.22;78.28
11692;BME280;33659;42.672;23.354;2023-05-14T10:04:50;94853.31;;;13.26;78.08
11692;BME280;33659;42.672;23.354;2023-05-14T10:07:21;94836.06;;;13.25;78.01
11692;BME280;33659;42.672;23.354;2023-05-14T10:09:53;94837.16;;;13.24;77.68
11692;BME280;33659;42.672;23.354;2023-05-14T10:12:27;94833.44;;;13.25;78.31
11692;BME280;33659;42.672;23.354;2023-05-14T10:14:56;94832.78;;;13.28;78.47
11692;BME280;33659;42.672;23.354;2023-05-14T10:17:26;94838.44;;;13.30;78.50
11692;BME280;33659;42.672;23.354;2023-05-14T10:19:57;94822.38;;;13.32;78.43
11692;BME280;33659;42.672;23.354;2023-05-14T10:22:30;94817.13;;;13.32;77.96
11692;BME280;33659;42.672;23.354;2023-05-14T10:24:59;94805.13;;;13.31;78.11
11692;BME280;33659;42.672;23.354;2023-05-14T10:27:29;94794.28;;;13.20;78.51
11692;BME280;33659;42.672;23.354;2023-05-14T10:29:56;94831.78;;;13.33;78.32
11692;BME280;33659;42.672;23.354;2023-05-14T10:32:24;94829.28;;;13.24;78.43
11692;BME280;33659;42.672;23.354;2023-05-14T10:34:51;94834.50;;;13.36;77.94
11692;BME280;33659;42.672;23.354;2023-05-14T10:37:22;94831.00;;;13.32;78.15
11692;BME280;33659;42.672;23.354;2023-05-14T10:39:51;94833.53;;;13.28;78.40
11692;BME280;33659;42.672;23.354;2023-05-14T10:42:20;94826.03;;;13.27;78.50
11692;BME280;33659;42.672;23.354;2023-05-14T10:44:51;94820.53;;;13.32;78.02
11692;BME280;33659;42.672;23.354;2023-05-14T10:47:18;94818.66;;;13.33;78.40
11692;BME280;33659;42.672;23.354;2023-05-14T10:49:46;94817.59;;;13.34;78.44
11692;BME280;33659;42.672;23.354;2023-05-14T10:52:18;94814.19;;;13.33;78.86
11692;BME280;33659;42.672;23.354;2023-05-14T10:54:48;94811.13;;;13.19;79.17
11692;BME280;33659;42.672;23.354;2023-05-14T10:57:17;94817.06;;;13.28;78.85
11692;BME280;33659;42.672;23.354;2023-05-14T10:59:46;94820.78;;;13.27;78.96
11692;BME280;33659;42.672;23.354;2023-05-14T11:02:24;94810.69;;;13.29;78.63
11692;BME280;33659;42.672;23.354;2023-05-14T11:04:53;94798.25;;;13.26;78.72
11692;BME280;33659;42.672;23.354;2023-05-14T11:07:23;94802.06;;;13.28;79.43
11692;BME280;33659;42.672;23.354;2023-05-14T11:09:50;94806.97;;;13.18;79.05
11692;BME280;33659;42.672;23.354;2023-05-14T11:12:17;94808.22;;;13.08;78.78
11692;BME280;33659;42.672;23.354;2023-05-14T11:14:45;94817.06;;;13.04;79.46
11692;BME280;33659;42.672;23.354;2023-05-14T11:17:12;94819.28;;;13.01;79.98
11692;BME280;33659;42.672;23.354;2023-05-14T11:19:43;94823.84;;;13.05;79.85
11692;BME280;33659;42.672;23.354;2023-05-14T11:22:10;94825.03;;;13.07;80.53
11692;BME280;33659;42.672;23.354;2023-05-14T11:24:38;94817.28;;;13.11;81.07
11692;BME280;33659;42.672;23.354;2023-05-14T11:27:06;94821.75;;;13.10;80.84
11692;BME280;33659;42.672;23.354;2023-05-14T11:29:33;94803.81;;;13.12;81.05
11692;BME280;33659;42.672;23.354;2023-05-14T11:32:00;94797.59;;;13.17;80.30
11692;BME280;33659;42.672;23.354;2023-05-14T11:34:27;94806.03;;;13.10;80.49
11692;BME280;33659;42.672;23.354;2023-05-14T11:36:56;94791.94;;;13.15;80.78
11692;BME280;33659;42.672;23.354;2023-05-14T11:39:22;94799.53;;;13.20;81.11
11692;BME280;33659;42.672;23.354;2023-05-14T11:41:49;94794.97;;;13.17;81.38
11692;BME280;33659;42.672;23.354;2023-05-14T11:44:16;94803.47;;;13.26;81.08
11692;BME280;33659;42.672;23.354;2023-05-14T11:46:53;94782.41;;;13.22;81.28
11692;BME280;33659;42.672;23.354;2023-05-14T11:49:20;94783.81;;;13.20;80.57
11692;BME280;33659;42.672;23.354;2023-05-14T11:51:47;94777.25;;;13.26;80.92
11692;BME280;33659;42.672;23.354;2023-05-14T11:54:15;94790.16;;;13.31;80.71
11692;BME280;33659;42.672;23.354;2023-05-14T11:56:41;94792.19;;;13.38;80.71
11692;BME280;33659;42.672;23.354;2023-05-14T11:59:09;94785.28;;;13.45;80.17
11692;BME280;33659;42.672;23.354;2023-05-14T12:01:36;94782.34;;;13.47;78.92
11692;BME280;33659;42.672;23.354;2023-05-14T12:04:03;94781.00;;;13.53;78.61
11692;BME280;33659;42.672;23.354;2023-05-14T12:06:31;94779.13;;;13.53;78.57
11692;BME280;33659;42.672;23.354;2023-05-14T12:08:57;94775.19;;;13.60;78.10
11692;BME280;33659;42.672;23.354;2023-05-14T12:11:29;94769.88;;;13.72;78.05
11692;BME280;33659;42.672;23.354;2023-05-14T12:13:56;94763.75;;;13.68;78.40
11692;BME280;33659;42.672;23.354;2023-05-14T12:16:23;94759.78;;;13.74;78.33
11692;BME280;33659;42.672;23.354;2023-05-14T12:18:49;94757.75;;;13.83;78.59
11692;BME280;33659;42.672;23.354;2023-05-14T12:21:16;94747.94;;;13.80;78.18
11692;BME280;33659;42.672;23.354;2023-05-14T12:23:42;94736.75;;;13.83;78.23
11692;BME280;33659;42.672;23.354;2023-05-14T12:26:09;94737.50;;;13.83;77.63
11692;BME280;33659;42.672;23.354;2023-05-14T12:28:39;94732.59;;;13.82;76.91
11692;BME280;33659;42.672;23.354;2023-05-14T12:31:07;94734.56;;;13.85;76.61
11692;BME280;33659;42.672;23.354;2023-05-14T12:33:34;94732.34;;;13.87;76.30
11692;BME280;33659;42.672;23.354;2023-05-14T12:36:00;94734.97;;;13.87;76.92
11692;BME280;33659;42.672;23.354;2023-05-14T12:38:28;94719.41;;;13.94;80.56
11692;BME280;33659;42.672;23.354;2023-05-14T12:40:56;94707.13;;;13.98;79.13
11692;BME280;33659;42.672;23.354;2023-05-14T12:43:23;94722.09;;;14.14;76.38
11692;BME280;33659;42.672;23.354;2023-05-14T12:45:55;94714.81;;;14.07;75.44
11692;BME280;33659;42.672;23.354;2023-05-14T13:06:43;94723.22;;;14.13;75.28
11692;BME280;33659;42.672;23.354;2023-05-14T13:09:11;94725.41;;;14.11;75.61
11692;BME280;33659;42.672;23.354;2023-05-14T13:11:38;94723.63;;;13.99;76.19